Nearby METAR Reports

 

KDFW - Dallas/Ft Worth, Texas, USA
Distance from station: SSE 10mi, 16km
Updated: Wed, 19-Dec-2018 7:53am CST
Light drizzle, Fog, Overcast
Light drizzle, Fog, Overcast
 Wind from SE
Wind: SE 8 mph , 13 km/h
Temperature: 52°F , 11°C
Dew Point: 52°F , 11°C
Humidity: 100%
Barometer: 29.88 inHg , 1011.9 hPa
Summary: Light drizzle, Fog
Clouds: Overcast
Visibility: 1/16 mile , 0.1 km
Cloud details: Overcast 200 ft
2018/12/19 13:53 KDFW 191353Z 13007KT 1/16SM R17C/1800V2400FT -DZ FG OVC002 11/11 A2988 RMK AO2 SFC VIS 1/4 SLP115 P0001 T01110106
KDTO - Denton, Texas, USA
Distance from station: NNW 13mi, 21km
Updated: Wed, 19-Dec-2018 7:53am CST
Fog, Overcast
Fog, Overcast
 Wind from E
Wind: E 6 mph , 9 km/h
Temperature: 52°F , 11°C
Dew Point: 52°F , 11°C
Humidity: 100%
Barometer: 29.89 inHg , 1012.2 hPa
Summary: Fog
Clouds: Overcast
Visibility: 1/2 mile , 0.8 km
Cloud details: Overcast 200 ft
2018/12/19 13:53 KDTO 191353Z 10005KT 1/2SM FG VV002 11/11 A2989 RMK AO2 SLP117 T01060106
 
KAFW - Ft Worth/Allianc, Texas, USA
Distance from station: WSW 14mi, 22km
Updated: Wed, 19-Dec-2018 7:53am CST
Mist, Overcast
Mist, Overcast
 Wind from SE
Wind: SE 8 mph , 13 km/h
Temperature: 54°F , 12°C
Dew Point: 52°F , 11°C
Humidity: 94%
Barometer: 29.88 inHg , 1011.9 hPa
Summary: Mist
Clouds: Overcast
Visibility: 1/2 mile , 0.8 km
Cloud details: Overcast 200 ft
2018/12/19 13:53 KAFW 191353Z 13007KT 1/2SM R16L/3500V5500FT BR OVC002 12/11 A2988 RMK AO2 SFC VIS 3 DZE21 SLP119 P0000 T01170106
KADS - Dallas/Addison, Texas, USA
Distance from station: ESE 17mi, 27km
Updated: Wed, 19-Dec-2018 7:47am CST
Mist, Overcast
Mist, Overcast
 Wind from SE
Wind: SE 6 mph , 9 km/h
Temperature: 52°F , 11°C
Dew Point: 50°F , 10°C
Humidity: 94%
Barometer: 29.91 inHg , 1012.9 hPa
Summary: Mist
Clouds: Overcast
Visibility: 3/8 mile , 0.6 km
Cloud details: Overcast 200 ft
2018/12/19 13:47 KADS 191347Z 13005KT 3/8SM BR OVC002 11/10 A2991
 
KDAL - Dallas/Love Fld, Texas, USA
Distance from station: SE 19mi, 30km
Updated: Wed, 19-Dec-2018 7:53am CST
Light drizzle, Mist, Overcast
Light drizzle, Mist, Overcast
 Wind from SE
Wind: SE 10 mph , 17 km/h
Temperature: 54°F , 12°C
Dew Point: 52°F , 11°C
Humidity: 94%
Barometer: 29.90 inHg , 1012.5 hPa
Summary: Light drizzle, Mist
Clouds: Overcast
Visibility: 1 mile , 2 km
Cloud details: Overcast 300 ft
2018/12/19 13:53 KDAL 191353Z 13009KT 1SM R13L/P6000FT -DZ BR OVC003 12/11 A2990 RMK AO2 DZB1254E22B51 SLP123 P0000 T01170111 $
KFTW - Fort Worth, Texas, USA
Distance from station: SW 21mi, 34km
Updated: Wed, 19-Dec-2018 7:53am CST
Mist, Overcast
Mist, Overcast
 Wind from SE
Wind: SE 8 mph , 13 km/h
Temperature: 52°F , 11°C
Dew Point: 52°F , 11°C
Humidity: 100%
Barometer: 29.88 inHg , 1011.9 hPa
Summary: Mist
Clouds: Overcast
Visibility: 3/4 mile , 1.2 km
Cloud details: Overcast 100 ft
2018/12/19 13:53 KFTW 191353Z 13007KT 3/4SM R16/2600V4000FT BR OVC001 11/11 A2988 RMK AO2 SLP116 T01110111
 
KGPM - Grand Prairie, Texas, USA
Distance from station: S 23mi, 37km
Updated: Wed, 19-Dec-2018 8:00am CST
Fog
Fog
 Wind from E
Wind: E 3 mph , 6 km/h
Temperature: 52°F , 11°C
Dew Point: 52°F , 11°C
Humidity: 100%
Barometer: 29.91 inHg , 1012.9 hPa
Summary: Fog
Visibility: 1/2 mile , 0.8 km
2018/12/19 14:00 KGPM 191400Z 10003KT 1/2SM FG 11/11 A2991
KGKY - Arlington, Texas, USA
Distance from station: S 25mi, 41km
Updated: Wed, 19-Dec-2018 7:53am CST
Mist, Overcast
Mist, Overcast
 Wind from ESE
Wind: ESE 6 mph , 9 km/h
Temperature: 52°F , 11°C
Dew Point: 52°F , 11°C
Humidity: 100%
Barometer: 29.89 inHg , 1012.2 hPa
Summary: Mist
Clouds: Overcast
Visibility: 1 1/2 miles , 2.4 km
Cloud details: Overcast 200 ft
2018/12/19 13:53 KGKY 191353Z 11005KT 1 1/2SM BR OVC002 11/11 A2989 RMK AO2 SLP120 T01110111